Terminal Aerodrome Forecast
Issued by NWS Blacksburg, VA

Current Version | Previous Version | Graphics & Text | Print | Product List | Glossary On
Versions: 1 2 3 4 5 6 7 8 9 10 11 12 13 14 15 16 17 18 19 20 21 22 23 24 25 26 27 28 29 30 31 32 33 34 35 36 37 38 39 40 41 42
000
FTUS41 KRNK 271502 AAC
TAFBLF
TAF AMD
KBLF 271502Z 2715/2812 24007KT P6SM VCTS SCT035 BKN050CB
      TEMPO 2716/2718 4SM SHRA OVC035
     FM272000 25012G22KT P6SM VCTS BKN040CB
     FM272300 26012G22KT P6SM -SHRA VCTS BKN050CB
     FM280400 26010KT P6SM BKN050=

USA.gov is the U.S. government's official web portal to all federal, state and local government web resources and services.